sensor_id;sensor_type;location;lat;lon;timestamp;P1;durP1;ratioP1;P2;durP2;ratioP2
22780;SDS011;11557;50.884;4.322;2023-04-25T00:01:13;20.25;;;6.00;;
22780;SDS011;11557;50.884;4.322;2023-04-25T00:03:38;21.67;;;6.07;;
22780;SDS011;11557;50.884;4.322;2023-04-25T00:06:05;22.75;;;5.82;;
22780;SDS011;11557;50.884;4.322;2023-04-25T00:08:31;17.30;;;5.22;;
22780;SDS011;11557;50.884;4.322;2023-04-25T00:10:58;20.35;;;6.28;;
22780;SDS011;11557;50.884;4.322;2023-04-25T00:13:24;23.42;;;5.25;;
22780;SDS011;11557;50.884;4.322;2023-04-25T00:15:50;24.42;;;5.47;;
22780;SDS011;11557;50.884;4.322;2023-04-25T00:18:18;24.50;;;5.10;;
22780;SDS011;11557;50.884;4.322;2023-04-25T00:20:47;28.08;;;5.63;;
22780;SDS011;11557;50.884;4.322;2023-04-25T00:23:13;16.85;;;5.00;;
22780;SDS011;11557;50.884;4.322;2023-04-25T00:25:47;19.02;;;4.95;;
22780;SDS011;11557;50.884;4.322;2023-04-25T00:28:14;21.70;;;5.70;;
22780;SDS011;11557;50.884;4.322;2023-04-25T00:30:40;18.95;;;5.07;;
22780;SDS011;11557;50.884;4.322;2023-04-25T00:33:07;19.58;;;5.35;;
22780;SDS011;11557;50.884;4.322;2023-04-25T00:35:33;27.33;;;5.70;;
22780;SDS011;11557;50.884;4.322;2023-04-25T00:37:59;19.15;;;5.60;;
22780;SDS011;11557;50.884;4.322;2023-04-25T00:40:25;27.10;;;6.32;;
22780;SDS011;11557;50.884;4.322;2023-04-25T00:42:51;24.92;;;5.45;;
22780;SDS011;11557;50.884;4.322;2023-04-25T00:45:18;20.98;;;5.78;;
22780;SDS011;11557;50.884;4.322;2023-04-25T00:47:44;18.15;;;5.13;;
22780;SDS011;11557;50.884;4.322;2023-04-25T00:50:11;22.92;;;6.03;;
22780;SDS011;11557;50.884;4.322;2023-04-25T00:52:41;24.10;;;5.50;;
22780;SDS011;11557;50.884;4.322;2023-04-25T00:55:09;22.42;;;6.22;;
22780;SDS011;11557;50.884;4.322;2023-04-25T00:57:37;22.30;;;5.95;;
22780;SDS011;11557;50.884;4.322;2023-04-25T01:00:04;20.50;;;6.20;;
22780;SDS011;11557;50.884;4.322;2023-04-25T01:02:34;27.83;;;5.97;;
22780;SDS011;11557;50.884;4.322;2023-04-25T01:05:01;21.67;;;6.03;;
22780;SDS011;11557;50.884;4.322;2023-04-25T01:07:28;21.35;;;5.72;;
22780;SDS011;11557;50.884;4.322;2023-04-25T01:09:54;19.20;;;5.60;;
22780;SDS011;11557;50.884;4.322;2023-04-25T01:12:20;16.05;;;5.47;;
22780;SDS011;11557;50.884;4.322;2023-04-25T01:14:46;20.13;;;6.70;;
22780;SDS011;11557;50.884;4.322;2023-04-25T01:17:12;19.52;;;6.00;;
22780;SDS011;11557;50.884;4.322;2023-04-25T01:19:38;24.60;;;7.68;;
22780;SDS011;11557;50.884;4.322;2023-04-25T01:22:04;16.65;;;5.63;;
22780;SDS011;11557;50.884;4.322;2023-04-25T01:24:32;21.20;;;6.13;;
22780;SDS011;11557;50.884;4.322;2023-04-25T01:26:59;16.17;;;5.55;;
22780;SDS011;11557;50.884;4.322;2023-04-25T01:29:26;18.30;;;5.38;;
22780;SDS011;11557;50.884;4.322;2023-04-25T01:31:53;19.20;;;5.50;;
22780;SDS011;11557;50.884;4.322;2023-04-25T01:34:19;18.75;;;5.60;;
22780;SDS011;11557;50.884;4.322;2023-04-25T01:36:46;18.15;;;4.78;;
22780;SDS011;11557;50.884;4.322;2023-04-25T01:39:14;19.92;;;5.97;;
22780;SDS011;11557;50.884;4.322;2023-04-25T01:41:40;20.85;;;6.07;;
22780;SDS011;11557;50.884;4.322;2023-04-25T01:44:06;25.63;;;5.88;;
22780;SDS011;11557;50.884;4.322;2023-04-25T01:46:32;18.77;;;5.18;;
22780;SDS011;11557;50.884;4.322;2023-04-25T01:48:58;21.92;;;5.60;;
22780;SDS011;11557;50.884;4.322;2023-04-25T01:51:24;20.35;;;5.65;;
22780;SDS011;11557;50.884;4.322;2023-04-25T01:53:50;24.27;;;5.47;;
22780;SDS011;11557;50.884;4.322;2023-04-25T01:56:17;25.23;;;6.53;;
22780;SDS011;11557;50.884;4.322;2023-04-25T01:58:43;28.17;;;6.53;;
22780;SDS011;11557;50.884;4.322;2023-04-25T02:01:09;20.15;;;6.32;;
22780;SDS011;11557;50.884;4.322;2023-04-25T02:03:35;21.75;;;6.28;;
22780;SDS011;11557;50.884;4.322;2023-04-25T02:06:01;22.10;;;5.88;;
22780;SDS011;11557;50.884;4.322;2023-04-25T02:08:27;22.45;;;5.75;;
22780;SDS011;11557;50.884;4.322;2023-04-25T02:10:52;26.88;;;6.25;;
22780;SDS011;11557;50.884;4.322;2023-04-25T02:13:18;25.88;;;6.78;;
22780;SDS011;11557;50.884;4.322;2023-04-25T02:15:44;21.15;;;5.93;;
22780;SDS011;11557;50.884;4.322;2023-04-25T02:18:09;23.33;;;6.15;;
22780;SDS011;11557;50.884;4.322;2023-04-25T02:20:36;23.48;;;5.90;;
22780;SDS011;11557;50.884;4.322;2023-04-25T02:23:02;23.63;;;6.35;;
22780;SDS011;11557;50.884;4.322;2023-04-25T02:25:28;19.80;;;6.35;;
22780;SDS011;11557;50.884;4.322;2023-04-25T02:27:54;25.48;;;6.63;;
22780;SDS011;11557;50.884;4.322;2023-04-25T02:30:20;17.17;;;6.28;;
22780;SDS011;11557;50.884;4.322;2023-04-25T02:32:45;24.13;;;7.00;;
22780;SDS011;11557;50.884;4.322;2023-04-25T02:35:11;18.40;;;6.07;;
22780;SDS011;11557;50.884;4.322;2023-04-25T02:37:38;22.50;;;6.72;;
22780;SDS011;11557;50.884;4.322;2023-04-25T02:40:04;29.83;;;7.00;;
22780;SDS011;11557;50.884;4.322;2023-04-25T02:42:31;26.90;;;6.60;;
22780;SDS011;11557;50.884;4.322;2023-04-25T02:44:56;27.17;;;7.05;;
22780;SDS011;11557;50.884;4.322;2023-04-25T02:47:22;21.15;;;6.72;;
22780;SDS011;11557;50.884;4.322;2023-04-25T02:49:48;24.10;;;7.20;;
22780;SDS011;11557;50.884;4.322;2023-04-25T02:52:15;21.48;;;6.10;;
22780;SDS011;11557;50.884;4.322;2023-04-25T02:54:41;21.13;;;6.43;;
22780;SDS011;11557;50.884;4.322;2023-04-25T02:57:06;20.80;;;5.90;;
22780;SDS011;11557;50.884;4.322;2023-04-25T02:59:32;23.17;;;6.20;;
22780;SDS011;11557;50.884;4.322;2023-04-25T03:01:58;29.23;;;5.85;;
22780;SDS011;11557;50.884;4.322;2023-04-25T03:04:24;29.63;;;7.00;;
22780;SDS011;11557;50.884;4.322;2023-04-25T03:06:50;18.85;;;6.25;;
22780;SDS011;11557;50.884;4.322;2023-04-25T03:09:16;20.05;;;6.13;;
22780;SDS011;11557;50.884;4.322;2023-04-25T03:11:43;25.45;;;7.25;;
22780;SDS011;11557;50.884;4.322;2023-04-25T03:14:09;20.92;;;6.28;;
22780;SDS011;11557;50.884;4.322;2023-04-25T03:16:35;22.15;;;6.00;;
22780;SDS011;11557;50.884;4.322;2023-04-25T03:19:01;27.15;;;6.88;;
22780;SDS011;11557;50.884;4.322;2023-04-25T03:21:29;28.63;;;7.28;;
22780;SDS011;11557;50.884;4.322;2023-04-25T03:23:56;20.83;;;6.68;;
22780;SDS011;11557;50.884;4.322;2023-04-25T03:26:22;30.48;;;6.63;;
22780;SDS011;11557;50.884;4.322;2023-04-25T03:28:48;24.35;;;6.43;;
22780;SDS011;11557;50.884;4.322;2023-04-25T03:31:14;23.92;;;7.00;;
22780;SDS011;11557;50.884;4.322;2023-04-25T03:33:39;20.58;;;5.63;;
22780;SDS011;11557;50.884;4.322;2023-04-25T03:36:05;23.13;;;5.80;;
22780;SDS011;11557;50.884;4.322;2023-04-25T03:38:31;30.23;;;6.07;;
22780;SDS011;11557;50.884;4.322;2023-04-25T03:40:57;26.08;;;5.82;;
22780;SDS011;11557;50.884;4.322;2023-04-25T03:43:22;23.15;;;5.40;;
22780;SDS011;11557;50.884;4.322;2023-04-25T03:45:48;25.00;;;6.30;;
22780;SDS011;11557;50.884;4.322;2023-04-25T03:48:14;21.10;;;6.63;;
22780;SDS011;11557;50.884;4.322;2023-04-25T03:50:40;25.63;;;6.28;;
22780;SDS011;11557;50.884;4.322;2023-04-25T03:53:05;25.70;;;6.05;;
22780;SDS011;11557;50.884;4.322;2023-04-25T03:55:31;18.77;;;5.28;;
22780;SDS011;11557;50.884;4.322;2023-04-25T03:57:57;24.45;;;5.45;;
22780;SDS011;11557;50.884;4.322;2023-04-25T04:00:24;20.30;;;5.18;;
22780;SDS011;11557;50.884;4.322;2023-04-25T04:02:50;28.35;;;6.13;;
22780;SDS011;11557;50.884;4.322;2023-04-25T04:05:15;29.20;;;6.05;;
22780;SDS011;11557;50.884;4.322;2023-04-25T04:07:41;25.08;;;5.60;;
22780;SDS011;11557;50.884;4.322;2023-04-25T04:10:10;25.15;;;5.45;;
22780;SDS011;11557;50.884;4.322;2023-04-25T04:12:37;19.80;;;4.97;;
22780;SDS011;11557;50.884;4.322;2023-04-25T04:15:05;20.40;;;5.20;;
22780;SDS011;11557;50.884;4.322;2023-04-25T04:17:32;26.50;;;5.82;;
22780;SDS011;11557;50.884;4.322;2023-04-25T04:19:58;20.60;;;4.80;;
22780;SDS011;11557;50.884;4.322;2023-04-25T04:22:24;26.00;;;5.38;;
22780;SDS011;11557;50.884;4.322;2023-04-25T04:24:50;21.60;;;5.88;;
22780;SDS011;11557;50.884;4.322;2023-04-25T04:27:17;21.20;;;5.43;;
22780;SDS011;11557;50.884;4.322;2023-04-25T04:29:44;18.35;;;5.15;;
22780;SDS011;11557;50.884;4.322;2023-04-25T04:32:11;23.65;;;5.38;;
22780;SDS011;11557;50.884;4.322;2023-04-25T04:34:37;22.80;;;5.00;;
22780;SDS011;11557;50.884;4.322;2023-04-25T04:37:04;19.85;;;5.03;;
22780;SDS011;11557;50.884;4.322;2023-04-25T04:39:32;22.30;;;5.65;;
22780;SDS011;11557;50.884;4.322;2023-04-25T04:41:58;21.08;;;5.38;;
22780;SDS011;11557;50.884;4.322;2023-04-25T04:44:24;21.27;;;6.40;;
22780;SDS011;11557;50.884;4.322;2023-04-25T04:46:50;19.77;;;5.63;;
22780;SDS011;11557;50.884;4.322;2023-04-25T04:49:16;26.17;;;6.35;;
22780;SDS011;11557;50.884;4.322;2023-04-25T04:51:42;22.88;;;5.90;;
22780;SDS011;11557;50.884;4.322;2023-04-25T04:54:12;15.27;;;5.47;;
22780;SDS011;11557;50.884;4.322;2023-04-25T04:56:39;18.40;;;5.60;;
22780;SDS011;11557;50.884;4.322;2023-04-25T04:59:05;19.40;;;5.82;;
22780;SDS011;11557;50.884;4.322;2023-04-25T05:01:30;20.52;;;5.22;;
22780;SDS011;11557;50.884;4.322;2023-04-25T05:03:56;19.55;;;4.85;;
22780;SDS011;11557;50.884;4.322;2023-04-25T05:06:25;14.50;;;4.43;;
22780;SDS011;11557;50.884;4.322;2023-04-25T05:08:51;16.35;;;4.70;;
22780;SDS011;11557;50.884;4.322;2023-04-25T05:11:18;17.80;;;5.10;;
22780;SDS011;11557;50.884;4.322;2023-04-25T05:13:44;19.35;;;5.18;;
22780;SDS011;11557;50.884;4.322;2023-04-25T05:16:11;18.98;;;4.65;;
22780;SDS011;11557;50.884;4.322;2023-04-25T05:18:37;16.48;;;5.13;;
22780;SDS011;11557;50.884;4.322;2023-04-25T05:21:04;20.30;;;5.22;;
22780;SDS011;11557;50.884;4.322;2023-04-25T05:23:30;17.33;;;5.82;;
22780;SDS011;11557;50.884;4.322;2023-04-25T05:25:57;15.85;;;5.07;;
22780;SDS011;11557;50.884;4.322;2023-04-25T05:28:23;14.73;;;5.10;;
22780;SDS011;11557;50.884;4.322;2023-04-25T05:30:49;23.35;;;4.90;;
22780;SDS011;11557;50.884;4.322;2023-04-25T05:33:15;22.35;;;5.30;;
22780;SDS011;11557;50.884;4.322;2023-04-25T05:35:41;13.32;;;5.03;;
22780;SDS011;11557;50.884;4.322;2023-04-25T05:38:07;18.90;;;5.05;;
22780;SDS011;11557;50.884;4.322;2023-04-25T05:40:33;15.68;;;5.25;;
22780;SDS011;11557;50.884;4.322;2023-04-25T05:42:59;19.80;;;5.03;;
22780;SDS011;11557;50.884;4.322;2023-04-25T05:45:24;17.45;;;4.55;;
22780;SDS011;11557;50.884;4.322;2023-04-25T05:47:50;17.30;;;4.53;;
22780;SDS011;11557;50.884;4.322;2023-04-25T05:50:16;18.42;;;5.18;;
22780;SDS011;11557;50.884;4.322;2023-04-25T05:52:42;15.32;;;4.43;;
22780;SDS011;11557;50.884;4.322;2023-04-25T05:55:07;16.70;;;4.95;;
22780;SDS011;11557;50.884;4.322;2023-04-25T05:57:33;16.27;;;4.35;;
22780;SDS011;11557;50.884;4.322;2023-04-25T06:00:00;14.30;;;4.30;;
22780;SDS011;11557;50.884;4.322;2023-04-25T06:02:25;17.83;;;4.75;;
22780;SDS011;11557;50.884;4.322;2023-04-25T06:04:52;13.50;;;4.53;;
22780;SDS011;11557;50.884;4.322;2023-04-25T06:07:20;17.52;;;4.30;;
22780;SDS011;11557;50.884;4.322;2023-04-25T06:09:46;16.23;;;4.47;;
22780;SDS011;11557;50.884;4.322;2023-04-25T06:12:12;16.70;;;4.15;;
22780;SDS011;11557;50.884;4.322;2023-04-25T06:14:37;13.32;;;4.20;;
22780;SDS011;11557;50.884;4.322;2023-04-25T06:17:03;14.98;;;4.10;;
22780;SDS011;11557;50.884;4.322;2023-04-25T06:19:34;15.27;;;4.63;;
22780;SDS011;11557;50.884;4.322;2023-04-25T06:22:00;12.77;;;4.35;;
22780;SDS011;11557;50.884;4.322;2023-04-25T06:24:27;17.05;;;4.05;;
22780;SDS011;11557;50.884;4.322;2023-04-25T06:26:53;15.25;;;4.85;;
22780;SDS011;11557;50.884;4.322;2023-04-25T06:29:19;12.63;;;4.38;;
22780;SDS011;11557;50.884;4.322;2023-04-25T06:31:44;16.42;;;5.72;;
22780;SDS011;11557;50.884;4.322;2023-04-25T06:34:10;13.52;;;4.20;;
22780;SDS011;11557;50.884;4.322;2023-04-25T06:36:36;19.25;;;4.38;;
22780;SDS011;11557;50.884;4.322;2023-04-25T06:39:01;11.25;;;4.50;;
22780;SDS011;11557;50.884;4.322;2023-04-25T06:41:27;17.63;;;4.75;;
22780;SDS011;11557;50.884;4.322;2023-04-25T06:43:53;17.02;;;4.50;;
22780;SDS011;11557;50.884;4.322;2023-04-25T06:46:18;25.98;;;4.68;;
22780;SDS011;11557;50.884;4.322;2023-04-25T06:48:44;17.27;;;4.63;;
22780;SDS011;11557;50.884;4.322;2023-04-25T06:51:10;18.48;;;4.22;;
22780;SDS011;11557;50.884;4.322;2023-04-25T06:53:36;17.30;;;4.43;;
22780;SDS011;11557;50.884;4.322;2023-04-25T06:56:01;17.45;;;4.32;;
22780;SDS011;11557;50.884;4.322;2023-04-25T06:58:28;15.10;;;4.10;;
22780;SDS011;11557;50.884;4.322;2023-04-25T07:00:53;12.68;;;3.60;;
22780;SDS011;11557;50.884;4.322;2023-04-25T07:03:19;16.15;;;4.30;;
22780;SDS011;11557;50.884;4.322;2023-04-25T07:05:45;20.30;;;4.28;;
22780;SDS011;11557;50.884;4.322;2023-04-25T07:08:11;16.05;;;4.22;;
22780;SDS011;11557;50.884;4.322;2023-04-25T07:10:37;15.30;;;4.28;;
22780;SDS011;11557;50.884;4.322;2023-04-25T07:13:02;13.38;;;4.13;;
22780;SDS011;11557;50.884;4.322;2023-04-25T07:15:28;16.02;;;4.00;;
22780;SDS011;11557;50.884;4.322;2023-04-25T07:17:54;14.40;;;3.78;;
22780;SDS011;11557;50.884;4.322;2023-04-25T07:20:19;17.73;;;4.05;;
22780;SDS011;11557;50.884;4.322;2023-04-25T07:22:45;18.45;;;3.67;;
22780;SDS011;11557;50.884;4.322;2023-04-25T07:25:11;14.65;;;3.67;;
22780;SDS011;11557;50.884;4.322;2023-04-25T07:27:37;17.42;;;3.92;;
22780;SDS011;11557;50.884;4.322;2023-04-25T07:30:03;16.63;;;3.50;;
22780;SDS011;11557;50.884;4.322;2023-04-25T07:32:29;20.17;;;4.43;;
22780;SDS011;11557;50.884;4.322;2023-04-25T07:34:54;14.60;;;4.25;;
22780;SDS011;11557;50.884;4.322;2023-04-25T07:37:20;12.65;;;2.90;;
22780;SDS011;11557;50.884;4.322;2023-04-25T07:39:46;15.40;;;3.40;;
22780;SDS011;11557;50.884;4.322;2023-04-25T07:42:12;13.38;;;3.08;;
22780;SDS011;11557;50.884;4.322;2023-04-25T07:44:38;12.32;;;3.28;;
22780;SDS011;11557;50.884;4.322;2023-04-25T07:47:05;16.85;;;3.60;;
22780;SDS011;11557;50.884;4.322;2023-04-25T07:49:34;11.32;;;3.25;;
22780;SDS011;11557;50.884;4.322;2023-04-25T07:52:00;11.43;;;3.25;;
22780;SDS011;11557;50.884;4.322;2023-04-25T07:54:26;10.35;;;3.55;;
22780;SDS011;11557;50.884;4.322;2023-04-25T07:56:52;12.98;;;2.92;;
22780;SDS011;11557;50.884;4.322;2023-04-25T07:59:18;14.20;;;3.10;;
22780;SDS011;11557;50.884;4.322;2023-04-25T08:01:43;14.27;;;3.42;;
22780;SDS011;11557;50.884;4.322;2023-04-25T08:04:09;12.50;;;3.08;;
22780;SDS011;11557;50.884;4.322;2023-04-25T08:06:35;16.65;;;3.70;;
22780;SDS011;11557;50.884;4.322;2023-04-25T08:09:01;12.02;;;2.95;;
22780;SDS011;11557;50.884;4.322;2023-04-25T08:11:27;13.18;;;3.17;;
22780;SDS011;11557;50.884;4.322;2023-04-25T08:13:53;13.77;;;3.40;;
22780;SDS011;11557;50.884;4.322;2023-04-25T08:16:18;12.75;;;3.10;;
22780;SDS011;11557;50.884;4.322;2023-04-25T08:18:44;11.88;;;2.90;;
22780;SDS011;11557;50.884;4.322;2023-04-25T08:21:10;11.52;;;3.00;;
22780;SDS011;11557;50.884;4.322;2023-04-25T08:23:36;12.05;;;2.63;;
22780;SDS011;11557;50.884;4.322;2023-04-25T08:26:03;9.50;;;2.38;;
22780;SDS011;11557;50.884;4.322;2023-04-25T08:28:30;11.25;;;2.78;;
22780;SDS011;11557;50.884;4.322;2023-04-25T08:30:56;13.23;;;2.95;;
22780;SDS011;11557;50.884;4.322;2023-04-25T08:33:21;11.13;;;2.88;;
22780;SDS011;11557;50.884;4.322;2023-04-25T08:35:47;8.60;;;2.80;;
22780;SDS011;11557;50.884;4.322;2023-04-25T08:38:13;14.90;;;2.70;;
22780;SDS011;11557;50.884;4.322;2023-04-25T08:40:39;9.63;;;2.75;;
22780;SDS011;11557;50.884;4.322;2023-04-25T08:43:06;12.55;;;3.10;;
22780;SDS011;11557;50.884;4.322;2023-04-25T08:45:38;9.18;;;2.45;;
22780;SDS011;11557;50.884;4.322;2023-04-25T08:48:10;11.35;;;2.47;;
22780;SDS011;11557;50.884;4.322;2023-04-25T08:50:39;9.65;;;2.58;;
22780;SDS011;11557;50.884;4.322;2023-04-25T08:53:09;13.57;;;2.45;;
22780;SDS011;11557;50.884;4.322;2023-04-25T08:55:41;8.25;;;2.05;;
22780;SDS011;11557;50.884;4.322;2023-04-25T08:58:07;12.45;;;2.80;;
22780;SDS011;11557;50.884;4.322;2023-04-25T09:00:35;12.48;;;2.90;;
22780;SDS011;11557;50.884;4.322;2023-04-25T09:03:01;12.93;;;2.58;;
22780;SDS011;11557;50.884;4.322;2023-04-25T09:05:28;12.10;;;2.60;;
22780;SDS011;11557;50.884;4.322;2023-04-25T09:07:54;8.93;;;2.20;;
22780;SDS011;11557;50.884;4.322;2023-04-25T09:10:21;8.48;;;2.25;;
22780;SDS011;11557;50.884;4.322;2023-04-25T09:13:06;8.25;;;2.15;;
22780;SDS011;11557;50.884;4.322;2023-04-25T09:15:46;9.18;;;2.20;;
22780;SDS011;11557;50.884;4.322;2023-04-25T09:18:25;17.73;;;2.78;;
22780;SDS011;11557;50.884;4.322;2023-04-25T09:20:56;11.10;;;2.25;;
22780;SDS011;11557;50.884;4.322;2023-04-25T09:23:38;9.15;;;2.15;;
22780;SDS011;11557;50.884;4.322;2023-04-25T09:26:06;10.70;;;2.20;;
22780;SDS011;11557;50.884;4.322;2023-04-25T09:28:32;8.68;;;2.97;;
22780;SDS011;11557;50.884;4.322;2023-04-25T09:31:00;7.72;;;2.13;;
22780;SDS011;11557;50.884;4.322;2023-04-25T09:33:29;13.13;;;1.90;;
22780;SDS011;11557;50.884;4.322;2023-04-25T09:36:01;9.13;;;2.20;;
22780;SDS011;11557;50.884;4.322;2023-04-25T09:38:28;6.18;;;1.98;;
22780;SDS011;11557;50.884;4.322;2023-04-25T09:41:06;9.70;;;2.33;;
22780;SDS011;11557;50.884;4.322;2023-04-25T09:43:32;6.72;;;1.92;;
22780;SDS011;11557;50.884;4.322;2023-04-25T09:45:57;7.20;;;1.75;;
22780;SDS011;11557;50.884;4.322;2023-04-25T09:48:25;6.97;;;1.80;;
22780;SDS011;11557;50.884;4.322;2023-04-25T09:51:12;7.03;;;1.88;;
22780;SDS011;11557;50.884;4.322;2023-04-25T09:53:39;3.47;;;1.15;;
22780;SDS011;11557;50.884;4.322;2023-04-25T09:56:07;4.60;;;1.65;;
22780;SDS011;11557;50.884;4.322;2023-04-25T09:58:36;6.43;;;1.27;;
22780;SDS011;11557;50.884;4.322;2023-04-25T10:01:04;5.30;;;1.50;;
22780;SDS011;11557;50.884;4.322;2023-04-25T10:03:31;8.00;;;1.30;;
22780;SDS011;11557;50.884;4.322;2023-04-25T10:06:02;6.90;;;2.08;;
22780;SDS011;11557;50.884;4.322;2023-04-25T10:08:32;9.20;;;1.73;;
22780;SDS011;11557;50.884;4.322;2023-04-25T10:11:02;4.05;;;1.42;;
22780;SDS011;11557;50.884;4.322;2023-04-25T10:13:30;7.22;;;2.75;;
22780;SDS011;11557;50.884;4.322;2023-04-25T10:15:57;7.50;;;3.20;;
22780;SDS011;11557;50.884;4.322;2023-04-25T10:18:24;4.05;;;1.48;;
22780;SDS011;11557;50.884;4.322;2023-04-25T10:20:53;7.75;;;1.48;;
22780;SDS011;11557;50.884;4.322;2023-04-25T10:23:25;4.53;;;1.65;;
22780;SDS011;11557;50.884;4.322;2023-04-25T10:25:53;7.47;;;1.70;;
22780;SDS011;11557;50.884;4.322;2023-04-25T10:28:19;9.10;;;1.65;;
22780;SDS011;11557;50.884;4.322;2023-04-25T10:31:02;4.80;;;1.60;;
22780;SDS011;11557;50.884;4.322;2023-04-25T10:33:39;7.07;;;1.85;;
22780;SDS011;11557;50.884;4.322;2023-04-25T10:36:11;5.97;;;1.45;;
22780;SDS011;11557;50.884;4.322;2023-04-25T10:38:38;8.52;;;1.70;;
22780;SDS011;11557;50.884;4.322;2023-04-25T10:41:07;6.07;;;1.30;;
22780;SDS011;11557;50.884;4.322;2023-04-25T10:43:38;4.05;;;1.38;;
22780;SDS011;11557;50.884;4.322;2023-04-25T10:48:46;6.30;;;1.50;;
22780;SDS011;11557;50.884;4.322;2023-04-25T10:54:11;7.85;;;1.60;;
22780;SDS011;11557;50.884;4.322;2023-04-25T10:56:40;8.20;;;1.60;;
22780;SDS011;11557;50.884;4.322;2023-04-25T10:59:12;9.27;;;1.77;;
22780;SDS011;11557;50.884;4.322;2023-04-25T11:01:45;10.68;;;2.10;;
22780;SDS011;11557;50.884;4.322;2023-04-25T11:04:30;9.30;;;1.80;;
22780;SDS011;11557;50.884;4.322;2023-04-25T11:07:10;10.77;;;2.33;;
22780;SDS011;11557;50.884;4.322;2023-04-25T11:09:47;8.70;;;1.77;;
22780;SDS011;11557;50.884;4.322;2023-04-25T11:12:13;8.48;;;1.63;;
22780;SDS011;11557;50.884;4.322;2023-04-25T11:14:40;5.53;;;1.40;;
22780;SDS011;11557;50.884;4.322;2023-04-25T11:17:05;5.82;;;1.55;;
22780;SDS011;11557;50.884;4.322;2023-04-25T11:19:32;8.95;;;1.85;;
22780;SDS011;11557;50.884;4.322;2023-04-25T11:21:59;4.90;;;1.42;;
22780;SDS011;11557;50.884;4.322;2023-04-25T11:24:29;9.65;;;2.03;;
22780;SDS011;11557;50.884;4.322;2023-04-25T11:26:57;6.32;;;1.50;;
22780;SDS011;11557;50.884;4.322;2023-04-25T11:29:26;5.72;;;1.60;;
22780;SDS011;11557;50.884;4.322;2023-04-25T11:31:52;6.38;;;1.52;;
22780;SDS011;11557;50.884;4.322;2023-04-25T11:34:20;11.55;;;1.67;;
22780;SDS011;11557;50.884;4.322;2023-04-25T11:36:47;6.57;;;1.85;;
22780;SDS011;11557;50.884;4.322;2023-04-25T11:39:12;9.32;;;1.52;;
22780;SDS011;11557;50.884;4.322;2023-04-25T11:41:40;12.15;;;1.92;;
22780;SDS011;11557;50.884;4.322;2023-04-25T11:44:07;4.45;;;1.40;;
22780;SDS011;11557;50.884;4.322;2023-04-25T11:46:36;6.45;;;1.60;;
22780;SDS011;11557;50.884;4.322;2023-04-25T11:49:02;6.35;;;1.50;;
22780;SDS011;11557;50.884;4.322;2023-04-25T11:51:29;7.78;;;1.80;;
22780;SDS011;11557;50.884;4.322;2023-04-25T11:53:55;4.60;;;1.48;;
22780;SDS011;11557;50.884;4.322;2023-04-25T11:56:21;6.22;;;1.40;;
22780;SDS011;11557;50.884;4.322;2023-04-25T11:58:54;5.40;;;1.58;;
22780;SDS011;11557;50.884;4.322;2023-04-25T12:02:09;4.45;;;1.10;;
22780;SDS011;11557;50.884;4.322;2023-04-25T12:04:14;6.75;;;2.15;;
22780;SDS011;11557;50.884;4.322;2023-04-25T12:06:42;6.72;;;1.80;;
22780;SDS011;11557;50.884;4.322;2023-04-25T12:09:09;6.57;;;1.58;;
22780;SDS011;11557;50.884;4.322;2023-04-25T12:11:41;7.13;;;1.30;;
22780;SDS011;11557;50.884;4.322;2023-04-25T12:14:11;8.10;;;1.35;;
22780;SDS011;11557;50.884;4.322;2023-04-25T12:16:44;4.00;;;1.60;;
22780;SDS011;11557;50.884;4.322;2023-04-25T12:19:14;5.28;;;1.50;;
22780;SDS011;11557;50.884;4.322;2023-04-25T12:21:40;2.63;;;1.00;;
22780;SDS011;11557;50.884;4.322;2023-04-25T12:24:13;4.85;;;1.35;;
22780;SDS011;11557;50.884;4.322;2023-04-25T12:26:52;6.85;;;1.25;;
22780;SDS011;11557;50.884;4.322;2023-04-25T12:29:24;5.07;;;1.13;;
22780;SDS011;11557;50.884;4.322;2023-04-25T12:31:51;7.72;;;1.20;;
22780;SDS011;11557;50.884;4.322;2023-04-25T12:34:18;6.40;;;1.30;;
22780;SDS011;11557;50.884;4.322;2023-04-25T12:36:47;3.28;;;1.27;;
22780;SDS011;11557;50.884;4.322;2023-04-25T12:39:14;3.58;;;1.13;;
22780;SDS011;11557;50.884;4.322;2023-04-25T12:41:40;6.13;;;1.30;;
22780;SDS011;11557;50.884;4.322;2023-04-25T12:44:06;4.03;;;1.30;;
22780;SDS011;11557;50.884;4.322;2023-04-25T12:46:32;4.65;;;1.33;;
22780;SDS011;11557;50.884;4.322;2023-04-25T12:48:57;8.10;;;1.65;;
22780;SDS011;11557;50.884;4.322;2023-04-25T12:51:23;10.15;;;1.50;;
22780;SDS011;11557;50.884;4.322;2023-04-25T12:53:50;7.78;;;1.88;;
22780;SDS011;11557;50.884;4.322;2023-04-25T12:56:18;8.85;;;2.38;;
22780;SDS011;11557;50.884;4.322;2023-04-25T12:58:44;7.35;;;1.40;;
22780;SDS011;11557;50.884;4.322;2023-04-25T13:01:10;4.32;;;1.25;;
22780;SDS011;11557;50.884;4.322;2023-04-25T13:03:37;6.53;;;1.55;;
22780;SDS011;11557;50.884;4.322;2023-04-25T13:06:03;7.85;;;1.38;;
22780;SDS011;11557;50.884;4.322;2023-04-25T13:08:29;7.88;;;1.40;;
22780;SDS011;11557;50.884;4.322;2023-04-25T13:10:55;5.45;;;1.30;;
22780;SDS011;11557;50.884;4.322;2023-04-25T13:13:21;6.50;;;1.50;;
22780;SDS011;11557;50.884;4.322;2023-04-25T13:15:46;5.07;;;1.30;;
22780;SDS011;11557;50.884;4.322;2023-04-25T13:18:12;8.52;;;1.30;;
22780;SDS011;11557;50.884;4.322;2023-04-25T13:20:38;5.15;;;1.38;;
22780;SDS011;11557;50.884;4.322;2023-04-25T13:23:03;3.53;;;1.10;;
22780;SDS011;11557;50.884;4.322;2023-04-25T13:25:29;3.13;;;1.13;;
22780;SDS011;11557;50.884;4.322;2023-04-25T13:27:55;5.40;;;1.05;;
22780;SDS011;11557;50.884;4.322;2023-04-25T13:30:20;4.25;;;1.50;;
22780;SDS011;11557;50.884;4.322;2023-04-25T13:32:46;4.43;;;1.10;;
22780;SDS011;11557;50.884;4.322;2023-04-25T13:35:12;5.45;;;1.00;;
22780;SDS011;11557;50.884;4.322;2023-04-25T13:37:41;4.72;;;1.13;;
22780;SDS011;11557;50.884;4.322;2023-04-25T13:40:08;3.95;;;1.23;;
22780;SDS011;11557;50.884;4.322;2023-04-25T13:42:35;5.63;;;1.30;;
22780;SDS011;11557;50.884;4.322;2023-04-25T13:45:01;5.80;;;1.30;;
22780;SDS011;11557;50.884;4.322;2023-04-25T13:47:29;3.67;;;1.38;;
22780;SDS011;11557;50.884;4.322;2023-04-25T13:49:58;7.43;;;1.52;;
22780;SDS011;11557;50.884;4.322;2023-04-25T13:52:24;5.90;;;1.40;;
22780;SDS011;11557;50.884;4.322;2023-04-25T13:54:50;5.75;;;1.30;;
22780;SDS011;11557;50.884;4.322;2023-04-25T13:57:16;7.18;;;1.38;;
22780;SDS011;11557;50.884;4.322;2023-04-25T13:59:42;5.45;;;1.23;;
22780;SDS011;11557;50.884;4.322;2023-04-25T14:02:08;8.30;;;1.23;;
22780;SDS011;11557;50.884;4.322;2023-04-25T14:04:34;4.15;;;1.15;;
22780;SDS011;11557;50.884;4.322;2023-04-25T14:07:00;7.53;;;1.45;;
22780;SDS011;11557;50.884;4.322;2023-04-25T14:09:27;4.32;;;1.30;;
22780;SDS011;11557;50.884;4.322;2023-04-25T14:11:53;7.00;;;1.60;;
22780;SDS011;11557;50.884;4.322;2023-04-25T14:14:19;6.85;;;1.25;;
22780;SDS011;11557;50.884;4.322;2023-04-25T14:16:46;3.80;;;1.15;;
22780;SDS011;11557;50.884;4.322;2023-04-25T14:19:16;5.47;;;1.35;;
22780;SDS011;11557;50.884;4.322;2023-04-25T14:21:42;8.75;;;1.48;;
22780;SDS011;11557;50.884;4.322;2023-04-25T14:24:08;6.30;;;1.35;;
22780;SDS011;11557;50.884;4.322;2023-04-25T14:26:35;6.32;;;1.00;;
22780;SDS011;11557;50.884;4.322;2023-04-25T14:29:02;7.03;;;1.40;;
22780;SDS011;11557;50.884;4.322;2023-04-25T14:31:32;5.15;;;1.77;;
22780;SDS011;11557;50.884;4.322;2023-04-25T14:33:58;4.55;;;1.17;;
22780;SDS011;11557;50.884;4.322;2023-04-25T14:36:23;8.77;;;1.42;;
22780;SDS011;11557;50.884;4.322;2023-04-25T14:38:51;7.35;;;1.20;;
22780;SDS011;11557;50.884;4.322;2023-04-25T14:41:17;4.55;;;1.30;;
22780;SDS011;11557;50.884;4.322;2023-04-25T14:43:43;9.00;;;1.60;;